Terminal Aerodrome Forecast
Issued by NWS Anchorage, AK

Home | Current Version | Previous Version | Text Only | Print | Product List | Glossary On
Versions: 1 2 3 4 5 6 7 8 9 10 11 12 13 14 15 16 17 18 19 20 21 22 23 24 25 26
000
FTAK31 PANC 240056 CCB
TAFANC
TAF COR
PANC 240056Z 2401/2506 17015G25KT 6SM -SN BKN025 OVC040
     FM240400 VRB06KT P6SM BKN040 OVC060
     FM241500 VRB06KT P6SM VCSH SCT025 BKN050 OVC100=

USA.gov is the U.S. government's official web portal to all federal, state and local government web resources and services.